Time,TemperatureF,DewpointF,PressureIn,WindDirection,WindDirectionDegrees,WindSpeedMPH,WindSpeedGustMPH,Humidity,HourlyPrecipIn,Conditions,Clouds,dailyrainin,SoftwareType,DateUTC
2013-01-10 00:02:00,33.0,29.0,-100.00,SSE,165,14.0,16.0,87,0.00,,,-99.99,,2013-01-10 06:02:00,
2013-01-10 00:12:00,32.0,29.0,-100.00,SSE,160,14.0,15.0,86,0.00,,,-99.99,,2013-01-10 06:12:00,
2013-01-10 00:22:00,31.0,28.0,-100.00,SSE,155,12.0,14.0,86,0.00,,,-99.99,,2013-01-10 06:22:00,
2013-01-10 00:32:00,30.0,27.0,-100.00,SSE,160,11.0,14.0,86,0.00,,,-99.99,,2013-01-10 06:32:00,
2013-01-10 00:42:00,31.0,27.0,-100.00,SSE,165,11.0,13.0,86,0.00,,,-99.99,,2013-01-10 06:42:00,
2013-01-10 00:52:00,32.0,28.0,-100.00,South,170,12.0,14.0,86,0.00,,,-99.99,,2013-01-10 06:52:00,
2013-01-10 01:02:00,32.0,29.0,-100.00,South,175,11.0,13.0,86,0.00,,,-99.99,,2013-01-10 07:02:00,
2013-01-10 01:12:00,31.0,28.0,-100.00,South,170,11.0,12.0,86,0.00,,,-99.99,,2013-01-10 07:12:00,
2013-01-10 01:22:00,30.0,27.0,-100.00,South,170,12.0,12.0,86,0.00,,,-99.99,,2013-01-10 07:22:00,
2013-01-10 01:32:00,30.0,27.0,-100.00,SSE,165,10.0,13.0,86,0.00,,,-99.99,,2013-01-10 07:32:00,
2013-01-10 01:42:00,28.0,25.0,-100.00,South,170,11.0,12.0,87,0.00,,,-99.99,,2013-01-10 07:42:00,
2013-01-10 01:52:00,28.0,25.0,-100.00,SSE,160,10.0,11.0,87,0.00,,,-99.99,,2013-01-10 07:52:00,
2013-01-10 02:02:00,28.0,25.0,-100.00,SSE,160,10.0,11.0,87,0.00,,,-99.99,,2013-01-10 08:02:00,
2013-01-10 02:12:00,27.0,24.0,-100.00,SSE,165,9.0,10.0,88,0.00,,,-99.99,,2013-01-10 08:12:00,
2013-01-10 02:22:00,30.0,27.0,-100.00,South,175,13.0,15.0,88,0.00,,,-99.99,,2013-01-10 08:22:00,
2013-01-10 02:32:00,33.0,29.0,-100.00,South,185,16.0,18.0,84,0.00,,,-99.99,,2013-01-10 08:32:00,
2013-01-10 02:42:00,33.0,27.0,-100.00,South,180,16.0,17.0,79,0.00,,,-99.99,,2013-01-10 08:42:00,
2013-01-10 02:52:00,32.0,26.0,-100.00,South,180,13.0,16.0,79,0.00,,,-99.99,,2013-01-10 08:52:00,
2013-01-10 03:02:00,32.0,26.0,-100.00,South,180,13.0,16.0,79,0.00,,,-99.99,,2013-01-10 09:02:00,
2013-01-10 03:12:00,31.0,25.0,-100.00,South,170,12.0,15.0,79,0.00,,,-99.99,,2013-01-10 09:12:00,
2013-01-10 03:22:00,29.0,24.0,-100.00,SSE,160,11.0,12.0,81,0.00,,,-99.99,,2013-01-10 09:22:00,
2013-01-10 03:32:00,29.0,24.0,-100.00,SSE,160,11.0,11.0,83,0.00,,,-99.99,,2013-01-10 09:32:00,
2013-01-10 03:42:00,28.0,24.0,-100.00,SSE,160,11.0,12.0,85,0.00,,,-99.99,,2013-01-10 09:42:00,
2013-01-10 03:52:00,27.0,24.0,-100.00,SSE,160,10.0,12.0,85,0.00,,,-99.99,,2013-01-10 09:52:00,
2013-01-10 04:03:00,27.0,24.0,-100.00,SSE,160,12.0,13.0,86,0.00,,,-99.99,,2013-01-10 10:03:00,
2013-01-10 04:12:00,27.0,23.0,-100.00,SSE,160,11.0,12.0,86,0.00,,,-99.99,,2013-01-10 10:12:00,
2013-01-10 04:22:00,26.0,22.0,-100.00,SSE,160,11.0,12.0,87,0.00,,,-99.99,,2013-01-10 10:22:00,
2013-01-10 04:32:00,25.0,22.0,-100.00,SSE,155,11.0,11.0,88,0.00,,,-99.99,,2013-01-10 10:32:00,
2013-01-10 04:42:00,25.0,22.0,-100.00,SSE,155,11.0,11.0,89,0.00,,,-99.99,,2013-01-10 10:42:00,
2013-01-10 04:52:00,25.0,23.0,-100.00,SSE,155,12.0,14.0,89,0.00,,,-99.99,,2013-01-10 10:52:00,
2013-01-10 05:02:00,25.0,23.0,-100.00,SSE,155,12.0,14.0,89,0.00,,,-99.99,,2013-01-10 11:02:00,
2013-01-10 05:12:00,24.0,22.0,-100.00,SSE,150,11.0,12.0,89,0.00,,,-99.99,,2013-01-10 11:12:00,
2013-01-10 05:22:00,24.0,21.0,-100.00,SSE,155,11.0,12.0,90,0.00,,,-99.99,,2013-01-10 11:22:00,
2013-01-10 05:32:00,24.0,22.0,-100.00,SSE,155,11.0,12.0,90,0.00,,,-99.99,,2013-01-10 11:32:00,
2013-01-10 05:42:00,24.0,22.0,-100.00,SSE,160,12.0,12.0,90,0.00,,,-99.99,,2013-01-10 11:42:00,
2013-01-10 05:52:00,23.0,21.0,-100.00,SE,145,10.0,11.0,90,0.00,,,-99.99,,2013-01-10 11:52:00,
2013-01-10 06:02:00,23.0,21.0,-100.00,SE,145,10.0,11.0,90,0.00,,,-99.99,,2013-01-10 12:02:00,
2013-01-10 06:12:00,24.0,22.0,-100.00,SE,145,7.0,9.0,91,0.00,,,-99.99,,2013-01-10 12:12:00,
2013-01-10 06:22:00,24.0,22.0,-100.00,SSE,160,5.0,7.0,91,0.00,,,-99.99,,2013-01-10 12:22:00,
2013-01-10 06:32:00,24.0,22.0,-100.00,SSE,155,5.0,6.0,91,0.00,,,-99.99,,2013-01-10 12:32:00,
2013-01-10 06:42:00,22.0,20.0,-100.00,SE,125,4.0,6.0,91,0.00,,,-99.99,,2013-01-10 12:42:00,
2013-01-10 06:52:00,21.0,20.0,-100.00,ESE,115,4.0,5.0,92,0.00,,,-99.99,,2013-01-10 12:52:00,
2013-01-10 07:02:00,21.0,20.0,-100.00,ESE,115,4.0,5.0,92,0.00,,,-99.99,,2013-01-10 13:02:00,
2013-01-10 07:12:00,22.0,20.0,-100.00,SE,130,6.0,6.0,92,0.00,,,-99.99,,2013-01-10 13:12:00,
2013-01-10 07:22:00,22.0,20.0,-100.00,SE,140,6.0,6.0,92,0.00,,,-99.99,,2013-01-10 13:22:00,
2013-01-10 07:32:00,21.0,19.0,-100.00,SE,130,7.0,7.0,92,0.00,,,-99.99,,2013-01-10 13:32:00,
2013-01-10 07:42:00,22.0,21.0,-100.00,SE,140,7.0,8.0,93,0.00,,,-99.99,,2013-01-10 13:42:00,
2013-01-10 07:52:00,24.0,23.0,-100.00,SE,135,9.0,10.0,93,0.00,,,-99.99,,2013-01-10 13:52:00,
2013-01-10 08:02:00,24.0,23.0,-100.00,SE,135,9.0,10.0,93,0.00,,,-99.99,,2013-01-10 14:02:00,
2013-01-10 08:12:00,26.0,24.0,-100.00,SE,140,11.0,12.0,93,0.00,,,-99.99,,2013-01-10 14:12:00,
2013-01-10 08:22:00,26.0,24.0,-100.00,SE,140,10.0,11.0,92,0.00,,,-99.99,,2013-01-10 14:22:00,
2013-01-10 08:33:00,27.0,24.0,-100.00,SE,135,9.0,11.0,91,0.00,,,-99.99,,2013-01-10 14:33:00,
2013-01-10 08:43:00,27.0,25.0,-100.00,SE,140,9.0,11.0,91,0.00,,,-99.99,,2013-01-10 14:43:00,
2013-01-10 08:53:00,27.0,25.0,-100.00,SE,140,9.0,11.0,91,0.00,,,-99.99,,2013-01-10 14:53:00,
2013-01-10 09:03:00,27.0,25.0,-100.00,SE,140,9.0,11.0,91,0.00,,,-99.99,,2013-01-10 15:03:00,
2013-01-10 09:12:00,29.0,26.0,-100.00,SSE,150,6.0,10.0,90,0.00,,,-99.99,,2013-01-10 15:12:00,
2013-01-10 09:22:00,29.0,27.0,-100.00,SE,140,7.0,9.0,89,0.00,,,-99.99,,2013-01-10 15:22:00,
2013-01-10 09:33:00,30.0,27.0,-100.00,SE,140,10.0,13.0,87,0.00,,,-99.99,,2013-01-10 15:33:00,
2013-01-10 09:43:00,30.0,27.0,-100.00,SE,145,11.0,12.0,86,0.00,,,-99.99,,2013-01-10 15:43:00,
2013-01-10 09:53:00,31.0,27.0,-100.00,SE,135,10.0,13.0,84,0.00,,,-99.99,,2013-01-10 15:53:00,
2013-01-10 10:02:00,31.0,27.0,-100.00,SE,135,10.0,13.0,84,0.00,,,-99.99,,2013-01-10 16:02:00,
2013-01-10 10:12:00,32.0,27.0,-100.00,SE,145,11.0,13.0,84,0.00,,,-99.99,,2013-01-10 16:12:00,
2013-01-10 10:22:00,33.0,27.0,-100.00,SE,140,11.0,15.0,81,0.00,,,-99.99,,2013-01-10 16:22:00,
2013-01-10 10:33:00,33.0,27.0,-100.00,SE,135,11.0,15.0,78,0.00,,,-99.99,,2013-01-10 16:33:00,
2013-01-10 10:42:00,33.0,27.0,-100.00,SE,145,11.0,17.0,77,0.00,,,-99.99,,2013-01-10 16:42:00,
2013-01-10 10:52:00,34.0,27.0,-100.00,SE,140,12.0,16.0,77,0.00,,,-99.99,,2013-01-10 16:52:00,
2013-01-10 11:03:00,34.0,27.0,-100.00,SE,140,12.0,16.0,77,0.00,,,-99.99,,2013-01-10 17:03:00,
2013-01-10 11:12:00,34.0,27.0,-100.00,SE,140,14.0,16.0,77,0.00,,,-99.99,,2013-01-10 17:12:00,
2013-01-10 11:22:00,34.0,28.0,-100.00,SE,145,14.0,20.0,77,0.00,,,-99.99,,2013-01-10 17:22:00,
2013-01-10 11:33:00,35.0,28.0,-100.00,SE,145,16.0,19.0,77,0.00,,,-99.99,,2013-01-10 17:33:00,
2013-01-10 11:42:00,35.0,28.0,-100.00,SE,145,17.0,21.0,76,0.00,,,-99.99,,2013-01-10 17:42:00,
2013-01-10 11:53:00,35.0,28.0,-100.00,SSE,150,17.0,22.0,76,0.00,,,-99.99,,2013-01-10 17:53:00,
2013-01-10 12:03:00,35.0,28.0,-100.00,SSE,150,17.0,22.0,76,0.00,,,-99.99,,2013-01-10 18:03:00,
2013-01-10 12:12:00,35.0,28.0,-100.00,SE,140,13.0,20.0,76,0.00,,,-99.99,,2013-01-10 18:12:00,
2013-01-10 12:23:00,35.0,28.0,-100.00,SE,135,13.0,18.0,76,0.00,,,-99.99,,2013-01-10 18:23:00,
2013-01-10 12:33:00,35.0,28.0,-100.00,SE,140,12.0,18.0,75,0.00,,,-99.99,,2013-01-10 18:33:00,
2013-01-10 12:43:00,35.0,28.0,-100.00,SE,135,14.0,17.0,75,0.00,,,-99.99,,2013-01-10 18:43:00,
2013-01-10 12:52:00,35.0,28.0,-100.00,SE,130,11.0,15.0,75,0.00,,,-99.99,,2013-01-10 18:52:00,
2013-01-10 13:03:00,35.0,28.0,-100.00,SE,130,11.0,15.0,75,0.00,,,-99.99,,2013-01-10 19:03:00,
2013-01-10 13:12:00,35.0,28.0,-100.00,SE,130,12.0,14.0,75,0.00,,,-99.99,,2013-01-10 19:12:00,
2013-01-10 13:23:00,35.0,28.0,-100.00,SE,125,14.0,18.0,75,0.00,,,-99.99,,2013-01-10 19:23:00,
2013-01-10 13:33:00,35.0,28.0,-100.00,SE,130,13.0,17.0,75,0.00,,,-99.99,,2013-01-10 19:33:00,
2013-01-10 13:43:00,35.0,28.0,-100.00,SE,125,12.0,15.0,75,0.00,,,-99.99,,2013-01-10 19:43:00,
2013-01-10 13:52:00,35.0,28.0,-100.00,ESE,115,11.0,15.0,76,0.00,,,-99.99,,2013-01-10 19:52:00,
2013-01-10 14:03:00,35.0,28.0,-100.00,ESE,115,11.0,15.0,76,0.00,,,-99.99,,2013-01-10 20:03:00,
2013-01-10 14:12:00,35.0,28.0,-100.00,ESE,120,13.0,15.0,76,0.28,,,-99.99,,2013-01-10 20:12:00,
2013-01-10 14:23:00,35.0,28.0,-100.00,ESE,120,13.0,15.0,76,0.28,,,-99.99,,2013-01-10 20:23:00,
2013-01-10 14:33:00,35.0,28.0,-100.00,ESE,120,13.0,15.0,76,0.28,,,-99.99,,2013-01-10 20:33:00,
2013-01-10 14:42:00,35.0,28.0,-100.00,SE,140,11.0,13.0,76,0.33,,,-99.99,,2013-01-10 20:42:00,
2013-01-10 14:53:00,35.0,28.0,-100.00,SE,140,9.0,13.0,77,0.54,,,-99.99,,2013-01-10 20:53:00,
2013-01-10 15:03:00,35.0,28.0,-100.00,SE,140,9.0,13.0,77,0.54,,,-99.99,,2013-01-10 21:03:00,
2013-01-10 15:12:00,34.0,29.0,-100.00,SE,130,10.0,12.0,82,0.67,,,-99.99,,2013-01-10 21:12:00,
2013-01-10 15:23:00,34.0,29.0,-100.00,SE,130,10.0,12.0,82,0.67,,,-99.99,,2013-01-10 21:23:00,
2013-01-10 15:33:00,33.0,30.0,-100.00,SE,125,12.0,14.0,86,0.43,,,-99.99,,2013-01-10 21:33:00,
2013-01-10 15:52:00,33.0,31.0,-100.00,SE,135,12.0,17.0,92,0.37,,,-99.99,,2013-01-10 21:52:00,
2013-01-10 16:03:00,33.0,31.0,-100.00,SE,135,12.0,17.0,92,0.37,,,-99.99,,2013-01-10 22:03:00,
2013-01-10 16:33:00,33.0,31.0,-100.00,SE,130,13.0,17.0,92,0.00,,,-99.99,,2013-01-10 22:33:00,
2013-01-10 16:43:00,33.0,31.0,-100.00,SE,130,13.0,16.0,92,0.00,,,-99.99,,2013-01-10 22:43:00,
2013-01-10 17:02:00,33.0,31.0,-100.00,SE,130,11.0,15.0,93,0.00,,,-99.99,,2013-01-10 23:02:00,
2013-01-10 17:12:00,33.0,31.0,-100.00,ESE,120,12.0,15.0,93,0.00,,,-99.99,,2013-01-10 23:12:00,
2013-01-10 17:22:00,33.0,31.0,-100.00,ESE,120,14.0,16.0,94,0.00,,,-99.99,,2013-01-10 23:22:00,
2013-01-10 17:33:00,33.0,31.0,-100.00,ESE,120,12.0,16.0,94,0.41,,,-99.99,,2013-01-10 23:33:00,
2013-01-10 17:42:00,33.0,31.0,-100.00,SE,130,11.0,14.0,94,0.28,,,-99.99,,2013-01-10 23:42:00,
2013-01-10 17:53:00,33.0,31.0,-100.00,SE,145,12.0,14.0,95,0.00,,,-99.99,,2013-01-10 23:53:00,
2013-01-10 18:02:00,33.0,31.0,-100.00,SE,145,12.0,14.0,95,0.00,,,-99.99,,2013-01-11 00:02:00,
2013-01-10 18:12:00,33.0,32.0,-100.00,SE,140,16.0,18.0,95,0.00,,,-99.99,,2013-01-11 00:12:00,
2013-01-10 18:23:00,33.0,32.0,-100.00,SE,145,16.0,20.0,95,0.00,,,-99.99,,2013-01-11 00:23:00,
2013-01-10 18:33:00,33.0,32.0,-100.00,SE,140,16.0,20.0,95,0.00,,,-99.99,,2013-01-11 00:33:00,
2013-01-10 18:42:00,33.0,32.0,-100.00,SE,140,16.0,19.0,95,0.00,,,-99.99,,2013-01-11 00:42:00,
2013-01-10 18:52:00,33.0,32.0,-100.00,SSE,150,12.0,18.0,95,0.00,,,-99.99,,2013-01-11 00:52:00,
2013-01-10 19:03:00,33.0,32.0,-100.00,SSE,150,12.0,18.0,95,0.00,,,-99.99,,2013-01-11 01:03:00,
2013-01-10 19:12:00,33.0,32.0,-100.00,SSE,150,12.0,15.0,95,0.00,,,-99.99,,2013-01-11 01:12:00,
2013-01-10 19:22:00,33.0,32.0,-100.00,SSE,150,13.0,15.0,95,0.37,,,-99.99,,2013-01-11 01:22:00,
2013-01-10 19:33:00,33.0,32.0,-100.00,SE,140,14.0,17.0,95,0.00,,,-99.99,,2013-01-11 01:33:00,
2013-01-10 19:43:00,33.0,32.0,-100.00,SE,145,14.0,19.0,95,0.00,,,-99.99,,2013-01-11 01:43:00,
2013-01-10 19:52:00,33.0,32.0,-100.00,SE,145,14.0,17.0,95,0.00,,,-99.99,,2013-01-11 01:52:00,
2013-01-10 20:02:00,33.0,32.0,-100.00,SSE,160,12.0,17.0,95,0.00,,,-99.99,,2013-01-11 02:02:00,
2013-01-10 20:12:00,33.0,32.0,-100.00,SSE,165,12.0,16.0,95,0.00,,,-99.99,,2013-01-11 02:12:00,
2013-01-10 20:23:00,33.0,32.0,-100.00,SSE,155,11.0,15.0,95,0.00,,,-99.99,,2013-01-11 02:23:00,
2013-01-10 20:33:00,33.0,32.0,-100.00,SE,145,11.0,13.0,95,0.00,,,-99.99,,2013-01-11 02:33:00,
2013-01-10 20:43:00,33.0,32.0,-100.00,SE,135,11.0,13.0,95,0.00,,,-99.99,,2013-01-11 02:43:00,
2013-01-10 20:53:00,33.0,32.0,-100.00,SSE,155,7.0,10.0,95,0.00,,,-99.99,,2013-01-11 02:53:00,
2013-01-10 21:02:00,33.0,32.0,-100.00,SSE,155,7.0,10.0,95,0.00,,,-99.99,,2013-01-11 03:02:00,
2013-01-10 21:12:00,33.0,32.0,-100.00,South,180,6.0,8.0,95,0.00,,,-99.99,,2013-01-11 03:12:00,
2013-01-10 21:23:00,33.0,32.0,-100.00,South,180,6.0,7.0,95,0.00,,,-99.99,,2013-01-11 03:23:00,
2013-01-10 21:33:00,33.0,32.0,-100.00,South,170,6.0,7.0,95,0.00,,,-99.99,,2013-01-11 03:33:00,
2013-01-10 21:42:00,33.0,32.0,-100.00,South,170,9.0,10.0,95,0.00,,,-99.99,,2013-01-11 03:42:00,
2013-01-10 21:52:00,33.0,32.0,-100.00,SSE,165,11.0,15.0,95,0.00,,,-99.99,,2013-01-11 03:52:00,
2013-01-10 22:02:00,33.0,32.0,-100.00,SSE,165,11.0,15.0,95,0.00,,,-99.99,,2013-01-11 04:02:00,
2013-01-10 22:12:00,33.0,32.0,-100.00,South,175,11.0,14.0,95,0.00,,,-99.99,,2013-01-11 04:12:00,
2013-01-10 22:22:00,33.0,32.0,-100.00,South,170,9.0,12.0,95,0.00,,,-99.99,,2013-01-11 04:22:00,
2013-01-10 22:33:00,33.0,32.0,-100.00,SSE,165,8.0,11.0,95,0.00,,,-99.99,,2013-01-11 04:33:00,
2013-01-10 22:42:00,33.0,32.0,-100.00,SSE,165,10.0,11.0,95,0.00,,,-99.99,,2013-01-11 04:42:00,
2013-01-10 22:52:00,33.0,32.0,-100.00,South,180,9.0,12.0,95,0.00,,,-99.99,,2013-01-11 04:52:00,
2013-01-10 23:03:00,33.0,32.0,-100.00,South,180,9.0,12.0,95,0.00,,,-99.99,,2013-01-11 05:03:00,
2013-01-10 23:12:00,33.0,32.0,-100.00,South,170,9.0,11.0,95,0.00,,,-99.99,,2013-01-11 05:12:00,
2013-01-10 23:22:00,33.0,32.0,-100.00,SSE,160,10.0,12.0,95,0.35,,,-99.99,,2013-01-11 05:22:00,
2013-01-10 23:33:00,33.0,32.0,-100.00,SSE,160,9.0,11.0,95,0.28,,,-99.99,,2013-01-11 05:33:00,
2013-01-10 23:42:00,33.0,32.0,-100.00,SSE,155,9.0,11.0,95,0.30,,,-99.99,,2013-01-11 05:42:00,
2013-01-10 23:52:00,33.0,32.0,-100.00,SSE,160,9.0,11.0,95,0.00,,,-99.99,,2013-01-11 05:52:00,